Time;durP1;ratioP1;P1;durP2;ratioP2;P2;SDS_P1;SDS_P2;PMS_P1;PMS_P2;Temp;Humidity;BMP_temperature;BMP_pressure;BME280_temperature;BME280_humidity;BME280_pressure;Samples;Min_cycle;Max_cycle;Signal;HPM_P1;HPM_P2
2021/01/05 00:01:06;;;;;;;25.30;17.67;;;1.20;99.90;;;;;;5054668;28;20519;-90
2021/01/05 00:03:34;;;;;;;25.20;17.47;;;1.20;99.90;;;;;;5049754;28;20457;-87
2021/01/05 00:06:04;;;;;;;24.00;17.07;;;1.20;99.90;;;;;;5054870;28;20450;-88
2021/01/05 00:08:31;;;;;;;25.40;18.07;;;1.20;99.90;;;;;;5054188;28;20512;-87
2021/01/05 00:10:58;;;;;;;24.53;18.90;;;1.20;99.90;;;;;;5050370;28;20519;-86
2021/01/05 00:13:30;;;;;;;26.77;17.73;;;1.30;99.90;;;;;;5045604;28;20458;-87
2021/01/05 00:15:58;;;;;;;23.93;16.33;;;1.40;99.90;;;;;;5038810;28;20456;-88
2021/01/05 00:18:25;;;;;;;25.13;16.80;;;1.30;99.90;;;;;;5018687;28;20489;-88
2021/01/05 00:20:55;;;;;;;25.03;16.87;;;1.20;99.90;;;;;;5036547;28;20631;-89
2021/01/05 00:23:22;;;;;;;25.27;18.30;;;1.30;99.90;;;;;;5030048;28;20493;-89
2021/01/05 00:25:52;;;;;;;25.70;16.37;;;1.30;99.90;;;;;;5038448;28;20467;-87
2021/01/05 00:28:21;;;;;;;24.73;16.83;;;1.30;99.90;;;;;;5036162;28;21073;-90
2021/01/05 00:30:54;;;;;;;23.37;17.07;;;1.30;99.90;;;;;;5044751;28;20455;-87
2021/01/05 00:33:30;;;;;;;24.07;16.80;;;1.20;99.90;;;;;;5036754;28;20439;-88
2021/01/05 00:36:01;;;;;;;27.73;18.17;;;1.20;99.90;;;;;;5023866;28;20458;-88
2021/01/05 00:38:28;;;;;;;25.57;17.83;;;1.30;99.90;;;;;;5047273;28;20500;-89
2021/01/05 00:40:55;;;;;;;21.50;16.47;;;1.20;99.90;;;;;;5045292;28;20473;-89
2021/01/05 00:43:21;;;;;;;25.07;17.30;;;1.30;99.90;;;;;;5047834;28;20489;-88
2021/01/05 00:45:48;;;;;;;24.77;17.63;;;1.20;99.90;;;;;;5043462;28;20819;-87
2021/01/05 00:48:16;;;;;;;25.27;16.50;;;1.20;99.90;;;;;;5038952;28;20454;-88
2021/01/05 00:50:45;;;;;;;24.73;17.20;;;1.20;99.90;;;;;;5043488;28;21034;-88
2021/01/05 00:53:16;;;;;;;24.57;17.20;;;1.30;99.90;;;;;;5038580;28;20453;-88
2021/01/05 00:55:45;;;;;;;22.87;17.00;;;1.20;99.90;;;;;;5037419;28;20497;-88
2021/01/05 00:58:11;;;;;;;24.50;17.20;;;1.20;99.90;;;;;;5035672;28;20444;-88
2021/01/05 01:00:38;;;;;;;24.87;18.60;;;1.20;99.90;;;;;;5037318;28;20455;-88
2021/01/05 01:03:06;;;;;;;21.90;16.50;;;1.20;99.90;;;;;;5038242;28;20479;-88
2021/01/05 01:05:34;;;;;;;21.97;16.10;;;1.20;99.90;;;;;;5021154;28;20875;-88
2021/01/05 01:08:04;;;;;;;22.47;15.87;;;1.20;99.90;;;;;;5039615;28;20827;-88
2021/01/05 01:10:33;;;;;;;23.03;15.70;;;1.20;99.90;;;;;;5050887;28;20443;-88
2021/01/05 01:13:00;;;;;;;24.97;17.30;;;1.20;99.90;;;;;;5054033;28;20472;-90
2021/01/05 01:15:27;;;;;;;26.57;17.67;;;1.20;99.90;;;;;;5051128;28;20973;-88
2021/01/05 01:17:58;;;;;;;25.07;17.37;;;1.20;99.90;;;;;;5040937;28;20472;-88
2021/01/05 01:20:28;;;;;;;24.53;17.03;;;1.30;99.90;;;;;;5040380;28;20435;-90
2021/01/05 01:22:57;;;;;;;22.33;16.43;;;1.30;99.90;;;;;;5055582;28;20563;-88
2021/01/05 01:25:25;;;;;;;23.43;17.20;;;1.30;99.90;;;;;;5030858;28;20451;-88
2021/01/05 01:27:55;;;;;;;27.27;17.37;;;1.20;99.90;;;;;;5053887;28;20452;-89
2021/01/05 01:30:25;;;;;;;27.77;17.17;;;1.30;99.90;;;;;;5032816;28;20548;-89
2021/01/05 01:32:53;;;;;;;22.43;16.33;;;1.20;99.90;;;;;;5043707;28;20506;-88
2021/01/05 01:35:27;;;;;;;27.00;16.43;;;1.20;99.90;;;;;;5040644;28;20462;-89
2021/01/05 01:38:02;;;;;;;25.93;16.40;;;1.20;99.90;;;;;;5041352;28;20483;-88
2021/01/05 01:40:46;;;;;;;22.20;14.60;;;1.20;99.90;;;;;;5023014;28;20458;-88
2021/01/05 01:43:18;;;;;;;23.53;17.73;;;1.20;99.90;;;;;;5026189;28;20472;-88
2021/01/05 01:45:48;;;;;;;24.40;16.57;;;1.20;99.90;;;;;;5041242;28;20499;-88
2021/01/05 01:48:16;;;;;;;21.23;15.07;;;1.30;99.90;;;;;;5040697;28;20466;-88
2021/01/05 01:50:43;;;;;;;20.40;15.53;;;1.30;99.90;;;;;;5036137;28;20456;-87
2021/01/05 01:53:45;;;;;;;21.77;15.70;;;1.30;99.90;;;;;;5040587;28;20444;-87
2021/01/05 01:56:34;;;;;;;22.23;15.70;;;1.30;99.90;;;;;;5041568;28;20484;-87
2021/01/05 01:59:14;;;;;;;21.53;15.10;;;1.20;99.90;;;;;;5046565;28;20461;-90
2021/01/05 02:01:57;;;;;;;23.13;16.27;;;1.30;99.90;;;;;;5049564;28;20447;-88
2021/01/05 02:04:46;;;;;;;19.73;15.50;;;1.30;99.90;;;;;;5030649;28;20546;-89
2021/01/05 02:07:48;;;;;;;20.60;16.30;;;1.30;99.90;;;;;;5032012;28;20451;-87
2021/01/05 02:10:48;;;;;;;25.07;15.77;;;1.30;99.90;;;;;;5038860;28;20568;-88
2021/01/05 02:13:39;;;;;;;25.10;15.60;;;1.30;99.90;;;;;;5038965;28;20479;-88
2021/01/05 02:19:38;;;;;;;22.13;16.30;;;1.30;99.90;;;;;;5036792;28;20478;-88
2021/01/05 02:22:16;;;;;;;21.23;14.67;;;1.30;99.90;;;;;;5035938;28;20463;-89
2021/01/05 02:30:38;;;;;;;20.73;15.20;;;1.30;99.90;;;;;;5037841;28;20503;-89
2021/01/05 02:33:22;;;;;;;19.43;14.10;;;1.30;99.90;;;;;;5037413;28;20465;-89
2021/01/05 02:36:09;;;;;;;20.83;15.70;;;1.30;99.90;;;;;;5042065;28;20448;-89
2021/01/05 02:38:54;;;;;;;22.57;15.53;;;1.40;99.90;;;;;;5039394;28;20538;-81
2021/01/05 02:41:39;;;;;;;23.60;15.53;;;1.30;99.90;;;;;;5044024;28;20456;-81
2021/01/05 02:44:23;;;;;;;20.80;15.57;;;1.30;99.90;;;;;;5048296;28;20493;-81
2021/01/05 02:46:54;;;;;;;23.00;15.60;;;1.30;99.90;;;;;;5041537;28;20486;-80
2021/01/05 02:49:36;;;;;;;23.10;15.00;;;1.30;99.90;;;;;;5005354;28;20493;-81
2021/01/05 02:52:44;;;;;;;19.77;14.40;;;1.30;99.90;;;;;;5032844;28;20495;-81
2021/01/05 02:56:07;;;;;;;23.50;15.00;;;1.40;99.90;;;;;;5039231;28;20982;-80
2021/01/05 02:59:01;;;;;;;25.00;16.23;;;1.30;99.90;;;;;;5037613;28;20949;-80
2021/01/05 03:02:03;;;;;;;22.07;16.30;;;1.30;99.90;;;;;;5040232;28;20515;-80
2021/01/05 03:04:32;;;;;;;28.27;15.93;;;1.40;99.90;;;;;;5015237;28;20468;-80
2021/01/05 03:07:01;;;;;;;25.43;15.50;;;1.40;99.90;;;;;;5038825;28;20444;-81
2021/01/05 03:10:04;;;;;;;24.10;16.73;;;1.40;99.90;;;;;;5039144;28;20476;-83
2021/01/05 03:12:54;;;;;;;22.70;15.80;;;1.40;99.90;;;;;;5037537;28;20505;-80
2021/01/05 03:15:38;;;;;;;20.77;15.10;;;1.30;99.90;;;;;;5040514;28;20472;-82
2021/01/05 03:18:11;;;;;;;22.73;15.60;;;1.50;99.90;;;;;;5033180;28;21037;-82
2021/01/05 03:20:43;;;;;;;22.00;16.70;;;1.30;99.90;;;;;;5035351;28;20482;-79
2021/01/05 03:23:13;;;;;;;19.73;14.97;;;1.30;99.90;;;;;;5037013;28;21268;-80
2021/01/05 03:25:43;;;;;;;26.47;16.07;;;1.30;99.90;;;;;;5038684;28;21015;-81
2021/01/05 03:28:13;;;;;;;23.57;15.67;;;1.30;99.90;;;;;;5035666;28;20490;-81
2021/01/05 03:30:43;;;;;;;19.80;16.07;;;1.30;99.90;;;;;;5041327;28;20481;-79
2021/01/05 03:33:12;;;;;;;23.33;14.63;;;1.40;99.90;;;;;;5044589;28;20450;-81
2021/01/05 03:35:38;;;;;;;22.10;16.80;;;1.30;99.90;;;;;;5037865;28;20472;-79
2021/01/05 03:38:06;;;;;;;21.27;15.33;;;1.30;99.90;;;;;;5035520;28;20456;-80
2021/01/05 03:40:34;;;;;;;24.23;16.33;;;1.30;99.90;;;;;;5037496;28;20449;-79
2021/01/05 03:43:00;;;;;;;26.10;15.90;;;1.30;99.90;;;;;;5042308;28;20531;-79
2021/01/05 03:45:29;;;;;;;22.33;16.40;;;1.30;99.90;;;;;;5037453;28;21087;-79
2021/01/05 03:47:56;;;;;;;23.90;15.27;;;1.30;99.90;;;;;;5037004;28;20510;-81
2021/01/05 03:50:24;;;;;;;23.80;16.07;;;1.30;99.90;;;;;;5038371;28;20462;-81
2021/01/05 03:52:50;;;;;;;25.73;17.70;;;1.30;99.90;;;;;;5037321;28;20541;-80
2021/01/05 03:55:18;;;;;;;25.13;16.67;;;1.30;99.90;;;;;;5036309;28;20520;-79
2021/01/05 03:57:45;;;;;;;22.37;16.13;;;1.40;99.90;;;;;;5038577;28;20452;-80
2021/01/05 04:00:17;;;;;;;27.30;17.30;;;1.30;99.90;;;;;;5039834;28;20441;-80
2021/01/05 04:02:45;;;;;;;27.27;17.10;;;1.30;99.90;;;;;;5038700;28;20540;-80
2021/01/05 04:05:15;;;;;;;22.23;16.47;;;1.40;99.90;;;;;;5017367;28;20493;-79
2021/01/05 04:07:42;;;;;;;25.27;17.00;;;1.30;99.90;;;;;;5039776;28;20481;-79
2021/01/05 04:10:09;;;;;;;24.30;16.30;;;1.40;99.90;;;;;;5036111;28;20476;-79
2021/01/05 04:12:37;;;;;;;22.50;17.33;;;1.40;99.90;;;;;;5038411;28;20477;-80
2021/01/05 04:15:05;;;;;;;28.17;17.07;;;1.40;99.90;;;;;;5041092;28;20455;-80
2021/01/05 04:17:32;;;;;;;27.10;16.83;;;1.50;99.90;;;;;;5037606;28;20470;-79
2021/01/05 04:19:58;;;;;;;27.43;18.07;;;1.40;99.90;;;;;;5037170;28;20467;-83
2021/01/05 04:22:24;;;;;;;26.27;16.90;;;1.40;99.90;;;;;;5044689;28;20469;-80
2021/01/05 04:24:52;;;;;;;31.17;20.13;;;1.40;99.90;;;;;;5043408;28;20488;-80
2021/01/05 04:27:18;;;;;;;26.80;17.97;;;1.40;99.90;;;;;;5044931;28;20451;-83
2021/01/05 04:29:45;;;;;;;26.70;17.40;;;1.40;99.90;;;;;;5046582;28;20883;-81
2021/01/05 04:32:12;;;;;;;30.07;18.57;;;1.40;99.90;;;;;;5044901;28;20450;-83
2021/01/05 04:34:38;;;;;;;26.50;18.23;;;1.40;99.90;;;;;;5044036;28;20456;-80
2021/01/05 04:37:04;;;;;;;29.17;18.80;;;1.40;99.90;;;;;;5043829;28;20463;-80
2021/01/05 04:39:31;;;;;;;27.40;17.70;;;1.40;99.90;;;;;;5037374;28;20478;-82
2021/01/05 04:42:05;;;;;;;30.10;18.27;;;1.40;99.90;;;;;;5046525;28;20491;-81
2021/01/05 04:44:54;;;;;;;27.13;17.80;;;1.40;99.90;;;;;;5049167;28;20466;-81
2021/01/05 04:47:28;;;;;;;31.17;19.10;;;1.40;99.90;;;;;;5045328;28;20527;-81
2021/01/05 04:50:06;;;;;;;31.07;20.17;;;1.40;99.90;;;;;;5049647;28;20470;-80
2021/01/05 04:52:40;;;;;;;29.03;18.60;;;1.40;99.90;;;;;;5049973;28;20530;-80
2021/01/05 04:55:20;;;;;;;31.67;20.10;;;1.50;99.90;;;;;;5045386;28;20435;-80
2021/01/05 04:57:53;;;;;;;31.00;18.80;;;1.40;99.90;;;;;;5040564;28;20466;-81
2021/01/05 05:00:25;;;;;;;28.67;18.10;;;1.50;99.90;;;;;;5036108;28;20460;-80
2021/01/05 05:03:01;;;;;;;28.53;18.33;;;1.50;99.90;;;;;;5037620;28;20448;-81
2021/01/05 05:05:50;;;;;;;28.47;18.40;;;1.50;99.90;;;;;;5035139;28;20455;-80
2021/01/05 05:08:48;;;;;;;27.87;19.07;;;1.40;99.90;;;;;;5036363;28;20458;-82
2021/01/05 05:11:18;;;;;;;26.07;17.13;;;1.50;99.90;;;;;;5034709;28;20447;-82
2021/01/05 05:13:55;;;;;;;23.57;17.87;;;1.40;99.90;;;;;;5036062;28;20535;-82
2021/01/05 05:16:57;;;;;;;27.83;16.87;;;1.40;99.90;;;;;;5035164;28;20463;-80
2021/01/05 05:19:46;;;;;;;24.77;15.77;;;1.50;99.90;;;;;;5032535;28;20447;-81
2021/01/05 05:22:21;;;;;;;24.40;17.10;;;1.50;99.90;;;;;;5051421;28;20466;-89
2021/01/05 05:24:55;;;;;;;26.57;16.90;;;1.60;99.90;;;;;;5040394;28;20460;-81
2021/01/05 05:27:30;;;;;;;25.20;17.60;;;1.50;99.90;;;;;;5035299;28;20447;-80
2021/01/05 05:30:01;;;;;;;25.40;16.87;;;1.50;99.90;;;;;;5038205;28;20459;-80
2021/01/05 05:32:35;;;;;;;26.50;16.90;;;1.50;99.90;;;;;;5044811;28;20426;-86
2021/01/05 05:35:43;;;;;;;20.80;15.23;;;1.50;99.90;;;;;;5052166;28;20436;-86
2021/01/05 05:38:25;;;;;;;30.33;15.60;;;1.50;99.90;;;;;;4975237;28;20482;-84
2021/01/05 05:40:57;;;;;;;23.47;15.67;;;1.50;99.90;;;;;;4971963;29;20449;-80
2021/01/05 05:43:36;;;;;;;25.30;15.60;;;1.50;99.90;;;;;;5005558;28;20535;-85
2021/01/05 05:46:08;;;;;;;23.57;16.00;;;1.50;99.90;;;;;;5049665;28;20451;-80
2021/01/05 05:48:49;;;;;;;22.47;15.40;;;1.40;99.90;;;;;;5045730;28;20490;-83
2021/01/05 05:51:21;;;;;;;20.17;14.80;;;1.50;99.90;;;;;;5037000;28;20975;-80
2021/01/05 05:53:51;;;;;;;25.73;15.37;;;1.50;99.90;;;;;;5036499;28;20452;-81
2021/01/05 05:56:22;;;;;;;25.30;15.30;;;1.50;99.90;;;;;;5035219;28;20480;-83
2021/01/05 05:58:54;;;;;;;20.37;14.27;;;1.40;99.90;;;;;;5032748;28;20471;-83
2021/01/05 06:01:27;;;;;;;20.50;14.90;;;1.50;99.90;;;;;;5035467;28;20482;-83
2021/01/05 06:03:54;;;;;;;23.83;15.10;;;1.50;99.90;;;;;;5035446;28;20607;-80
2021/01/05 06:06:21;;;;;;;20.87;14.60;;;1.50;99.90;;;;;;5039832;28;20955;-80
2021/01/05 06:08:47;;;;;;;21.30;14.33;;;1.50;99.90;;;;;;5037761;28;20471;-79
2021/01/05 06:11:14;;;;;;;21.47;15.10;;;1.50;99.90;;;;;;5038198;28;20448;-80
2021/01/05 06:13:40;;;;;;;22.63;15.07;;;1.40;99.90;;;;;;5038918;28;20472;-79
2021/01/05 06:16:07;;;;;;;21.73;14.40;;;1.50;99.90;;;;;;5035749;28;20458;-82
2021/01/05 06:18:34;;;;;;;19.60;14.30;;;1.60;99.90;;;;;;5039596;28;20482;-79
2021/01/05 06:21:01;;;;;;;20.80;15.47;;;1.60;99.90;;;;;;5037701;28;20492;-79
2021/01/05 06:23:27;;;;;;;21.50;13.60;;;1.60;99.90;;;;;;5044001;28;20470;-83
2021/01/05 06:25:57;;;;;;;16.93;13.50;;;1.60;99.90;;;;;;5039559;28;20452;-82
2021/01/05 06:28:23;;;;;;;21.60;14.47;;;1.50;99.90;;;;;;5035124;28;20447;-80
2021/01/05 06:30:50;;;;;;;24.73;15.70;;;1.70;99.90;;;;;;5039994;28;20978;-82
2021/01/05 06:33:17;;;;;;;22.73;15.40;;;1.60;99.90;;;;;;5023633;28;20476;-80
2021/01/05 06:35:44;;;;;;;20.73;14.40;;;1.70;99.90;;;;;;5040570;28;20460;-80
2021/01/05 06:38:10;;;;;;;20.87;14.90;;;1.70;99.90;;;;;;5036796;28;20854;-80
2021/01/05 06:40:37;;;;;;;24.60;15.20;;;1.70;99.90;;;;;;5035967;28;20483;-80
2021/01/05 06:43:05;;;;;;;23.83;15.10;;;1.70;99.90;;;;;;5042258;28;20495;-80
2021/01/05 06:45:33;;;;;;;19.43;14.17;;;1.70;99.90;;;;;;5043356;28;20539;-80
2021/01/05 06:48:00;;;;;;;26.00;14.50;;;1.70;99.90;;;;;;5053401;28;20454;-79
2021/01/05 06:50:29;;;;;;;22.20;15.60;;;1.70;99.90;;;;;;5042088;28;20946;-79
2021/01/05 06:52:57;;;;;;;21.90;15.10;;;1.80;99.90;;;;;;5043204;28;20465;-80
2021/01/05 06:55:23;;;;;;;21.10;14.73;;;1.80;99.90;;;;;;5044671;28;20441;-79
2021/01/05 06:57:49;;;;;;;23.53;15.30;;;1.80;99.90;;;;;;5043402;28;20467;-80
2021/01/05 07:00:19;;;;;;;21.03;14.83;;;1.70;99.90;;;;;;5039979;28;20455;-81
2021/01/05 07:02:48;;;;;;;23.47;14.70;;;1.80;99.90;;;;;;5038445;28;20452;-81
2021/01/05 07:05:19;;;;;;;17.23;12.83;;;1.90;99.90;;;;;;5028703;28;20487;-81
2021/01/05 07:07:46;;;;;;;27.03;14.50;;;1.80;99.90;;;;;;5039389;28;20476;-80
2021/01/05 07:10:15;;;;;;;24.83;15.20;;;1.80;99.90;;;;;;5041841;28;20476;-81
2021/01/05 07:12:42;;;;;;;21.97;14.50;;;1.80;99.90;;;;;;5023919;28;20472;-80
2021/01/05 07:15:10;;;;;;;22.30;14.40;;;1.80;99.90;;;;;;5042478;28;20452;-81
2021/01/05 07:17:37;;;;;;;20.10;14.33;;;1.80;99.90;;;;;;5042395;28;20471;-79
2021/01/05 07:20:04;;;;;;;21.40;14.47;;;1.80;99.90;;;;;;5044056;28;20445;-81
2021/01/05 07:22:30;;;;;;;19.47;13.83;;;1.70;99.90;;;;;;5047604;28;20453;-80
2021/01/05 07:24:57;;;;;;;20.60;13.33;;;1.70;99.90;;;;;;5049319;28;20465;-81
2021/01/05 07:27:24;;;;;;;24.90;15.03;;;1.80;99.90;;;;;;5038051;28;20486;-83
2021/01/05 07:29:51;;;;;;;19.43;14.03;;;1.70;99.90;;;;;;5050740;28;20522;-81
2021/01/05 07:32:17;;;;;;;21.73;14.47;;;1.80;99.90;;;;;;5050365;28;20447;-81
2021/01/05 07:34:44;;;;;;;20.67;14.80;;;1.80;99.90;;;;;;5050436;28;20444;-79
2021/01/05 07:37:14;;;;;;;24.50;14.00;;;1.80;99.90;;;;;;5046014;28;20443;-81
2021/01/05 07:39:41;;;;;;;17.00;11.70;;;1.80;99.90;;;;;;5045061;28;20457;-80
2021/01/05 07:42:15;;;;;;;24.23;13.87;;;1.80;99.90;;;;;;5041849;28;20445;-80
2021/01/05 07:44:44;;;;;;;21.33;12.23;;;1.90;99.90;;;;;;5038053;28;20508;-82
2021/01/05 07:47:13;;;;;;;18.57;12.77;;;1.90;99.20;;;;;;5036581;28;20455;-83
2021/01/05 07:49:40;;;;;;;21.17;14.27;;;1.80;99.60;;;;;;5021027;28;20482;-81
2021/01/05 07:52:18;;;;;;;19.80;13.10;;;1.90;99.20;;;;;;5036961;28;20506;-82
2021/01/05 07:54:44;;;;;;;16.40;12.87;;;1.90;99.60;;;;;;5035808;28;20440;-82
2021/01/05 07:57:10;;;;;;;15.73;12.97;;;1.90;98.30;;;;;;5037990;28;20962;-82
2021/01/05 07:59:37;;;;;;;17.33;13.17;;;1.90;97.60;;;;;;5037225;28;20440;-80
2021/01/05 08:02:04;;;;;;;16.47;11.97;;;1.90;98.00;;;;;;5032627;28;20808;-81
2021/01/05 08:04:33;;;;;;;16.40;12.27;;;1.90;98.40;;;;;;5034047;28;20460;-81
2021/01/05 08:07:00;;;;;;;17.73;12.50;;;1.90;98.60;;;;;;5040253;28;20513;-80
2021/01/05 08:09:27;;;;;;;17.87;12.30;;;1.90;99.30;;;;;;5040577;28;20461;-82
2021/01/05 08:11:55;;;;;;;16.70;12.93;;;1.90;99.00;;;;;;5040443;28;20808;-84
2021/01/05 08:14:21;;;;;;;19.40;13.27;;;1.80;99.90;;;;;;5042039;28;20450;-82
2021/01/05 08:16:53;;;;;;;17.37;13.00;;;1.90;99.90;;;;;;5038017;28;20509;-82
2021/01/05 08:19:21;;;;;;;17.87;12.90;;;1.90;99.90;;;;;;5040522;28;20455;-79
2021/01/05 08:21:48;;;;;;;19.90;12.50;;;2.00;99.90;;;;;;5044083;28;20449;-80
2021/01/05 08:24:19;;;;;;;17.47;13.20;;;2.10;99.90;;;;;;5041368;28;20507;-80
2021/01/05 08:26:46;;;;;;;17.33;12.37;;;2.00;98.90;;;;;;5042102;28;20452;-80
2021/01/05 08:29:12;;;;;;;15.97;12.33;;;2.00;98.60;;;;;;5045067;28;20448;-82
2021/01/05 08:31:45;;;;;;;16.83;12.73;;;2.00;99.70;;;;;;5039564;28;20464;-80
2021/01/05 08:34:12;;;;;;;18.60;12.33;;;1.90;98.50;;;;;;5039100;28;20456;-82
2021/01/05 08:36:39;;;;;;;19.50;13.13;;;1.90;99.80;;;;;;5038538;28;20978;-82
2021/01/05 08:39:06;;;;;;;16.90;12.50;;;1.90;97.60;;;;;;5039762;28;20532;-81
2021/01/05 08:41:34;;;;;;;17.33;12.03;;;2.00;97.20;;;;;;5041433;28;20441;-80
2021/01/05 08:44:01;;;;;;;18.33;12.50;;;2.00;96.80;;;;;;5049338;28;20483;-83
2021/01/05 08:46:29;;;;;;;17.40;12.73;;;2.20;96.90;;;;;;5040264;28;20458;-81
2021/01/05 08:48:56;;;;;;;14.83;12.20;;;2.30;95.60;;;;;;5047659;28;21013;-83
2021/01/05 08:51:23;;;;;;;15.30;11.70;;;2.40;92.80;;;;;;5046025;28;20450;-80
2021/01/05 08:53:51;;;;;;;17.13;12.10;;;2.40;92.90;;;;;;5044542;28;20554;-83
2021/01/05 08:56:19;;;;;;;21.73;11.80;;;2.30;92.10;;;;;;5042444;28;20470;-81
2021/01/05 08:58:46;;;;;;;14.83;12.10;;;2.30;92.80;;;;;;5044307;28;20455;-82
2021/01/05 09:01:13;;;;;;;14.27;11.87;;;2.10;93.80;;;;;;5040082;28;20497;-81
2021/01/05 09:03:39;;;;;;;14.27;11.20;;;2.20;95.00;;;;;;5040206;28;20575;-80
2021/01/05 09:06:07;;;;;;;17.23;12.17;;;2.20;95.00;;;;;;5034626;28;20463;-81
2021/01/05 09:08:34;;;;;;;21.43;13.87;;;2.20;94.80;;;;;;5038869;28;20455;-79
2021/01/05 09:11:03;;;;;;;17.20;13.00;;;2.20;94.80;;;;;;5042137;28;20451;-80
2021/01/05 09:13:29;;;;;;;16.73;12.50;;;2.10;94.90;;;;;;5037138;28;20480;-80
2021/01/05 09:15:58;;;;;;;18.03;11.60;;;2.20;94.90;;;;;;5037341;28;20454;-85
2021/01/05 09:18:24;;;;;;;14.03;12.50;;;2.30;95.00;;;;;;5014615;28;20460;-82
2021/01/05 09:20:52;;;;;;;21.67;13.00;;;2.20;95.00;;;;;;5036692;28;20440;-86
2021/01/05 09:23:21;;;;;;;18.10;13.17;;;2.20;95.40;;;;;;5048032;28;20460;-83
2021/01/05 09:25:50;;;;;;;22.20;13.33;;;2.30;95.50;;;;;;5040574;28;20528;-80
2021/01/05 09:28:18;;;;;;;17.00;13.03;;;2.40;94.20;;;;;;5038667;28;20448;-81
2021/01/05 09:30:46;;;;;;;23.20;12.67;;;2.30;95.50;;;;;;5040517;28;20496;-80
2021/01/05 09:33:13;;;;;;;20.87;12.90;;;2.40;94.20;;;;;;5042643;28;20442;-80
2021/01/05 09:35:40;;;;;;;19.40;13.23;;;2.40;93.80;;;;;;5045050;28;20794;-81
2021/01/05 09:38:10;;;;;;;25.27;11.77;;;2.30;93.20;;;;;;5044467;28;20464;-82
2021/01/05 09:40:38;;;;;;;17.70;12.27;;;2.40;93.80;;;;;;5043883;28;20505;-80
2021/01/05 09:43:06;;;;;;;17.77;11.37;;;2.40;92.70;;;;;;5043941;28;20520;-83
2021/01/05 09:45:34;;;;;;;14.60;11.80;;;2.30;93.70;;;;;;5047255;28;20451;-81
2021/01/05 09:48:05;;;;;;;21.60;12.50;;;2.40;93.10;;;;;;5056439;28;20453;-85
2021/01/05 09:50:33;;;;;;;19.10;12.97;;;2.60;94.80;;;;;;5064433;28;20474;-79
2021/01/05 09:53:00;;;;;;;13.67;11.17;;;2.70;92.00;;;;;;5046002;28;20845;-79
2021/01/05 09:55:27;;;;;;;13.17;11.73;;;2.70;92.10;;;;;;5042720;28;20447;-79
2021/01/05 09:57:54;;;;;;;16.70;12.30;;;2.60;91.40;;;;;;5041488;28;20456;-80
2021/01/05 10:00:22;;;;;;;16.73;11.93;;;2.60;92.30;;;;;;5036384;28;20670;-82
2021/01/05 10:02:49;;;;;;;15.97;11.90;;;2.60;93.10;;;;;;5043621;28;20494;-81
2021/01/05 10:05:16;;;;;;;19.20;12.97;;;2.90;92.40;;;;;;5042201;28;20478;-79
2021/01/05 10:07:44;;;;;;;15.13;11.87;;;3.00;91.00;;;;;;5026939;28;20487;-81
2021/01/05 10:10:17;;;;;;;19.00;11.73;;;2.90;90.30;;;;;;5050566;28;20454;-80
2021/01/05 10:12:43;;;;;;;15.07;11.80;;;3.00;90.80;;;;;;5052357;28;20487;-79
2021/01/05 10:15:11;;;;;;;16.30;11.63;;;3.10;89.50;;;;;;5052007;28;20431;-81
2021/01/05 10:17:40;;;;;;;13.73;11.00;;;3.10;89.10;;;;;;5046230;28;20451;-81
2021/01/05 10:20:11;;;;;;;12.10;10.57;;;3.20;89.20;;;;;;5039753;28;20452;-82
2021/01/05 10:22:38;;;;;;;14.97;11.27;;;3.30;89.00;;;;;;5041875;28;20449;-82
2021/01/05 10:25:07;;;;;;;14.97;10.33;;;3.30;86.60;;;;;;5040823;28;20555;-80
2021/01/05 10:27:34;;;;;;;13.50;10.40;;;3.20;88.00;;;;;;5045029;28;20437;-83
2021/01/05 10:30:00;;;;;;;14.43;11.00;;;3.40;88.50;;;;;;5036825;28;20560;-85
2021/01/05 10:32:27;;;;;;;14.03;10.00;;;3.40;86.40;;;;;;5042237;28;20982;-80
2021/01/05 10:34:54;;;;;;;12.67;10.20;;;3.30;88.40;;;;;;5036843;28;20510;-84
2021/01/05 10:37:21;;;;;;;11.13;9.93;;;3.40;86.90;;;;;;5037499;28;20523;-81
2021/01/05 10:39:47;;;;;;;11.33;9.70;;;3.30;87.90;;;;;;5040327;28;20461;-83
2021/01/05 10:42:14;;;;;;;13.77;10.43;;;3.40;87.40;;;;;;5039529;28;20828;-80
2021/01/05 10:44:41;;;;;;;10.97;9.80;;;3.40;85.90;;;;;;5039931;28;20471;-80
2021/01/05 10:47:09;;;;;;;12.23;9.87;;;3.40;86.80;;;;;;5040896;28;20958;-80
2021/01/05 10:49:36;;;;;;;14.03;9.77;;;3.30;86.40;;;;;;5038197;28;21032;-84
2021/01/05 10:52:05;;;;;;;15.97;10.70;;;3.60;86.90;;;;;;5033006;28;21012;-82
2021/01/05 10:54:33;;;;;;;11.17;9.33;;;3.70;86.50;;;;;;5038642;28;20464;-80
2021/01/05 10:57:04;;;;;;;12.40;10.20;;;3.80;84.90;;;;;;5039011;28;20465;-81
2021/01/05 10:59:31;;;;;;;9.83;8.83;;;3.70;85.10;;;;;;5038352;28;20453;-80
2021/01/05 11:01:59;;;;;;;11.90;8.80;;;3.50;84.30;;;;;;5035157;28;20448;-81
2021/01/05 11:04:27;;;;;;;13.50;10.03;;;3.50;84.00;;;;;;5031075;28;21859;-86
2021/01/05 11:06:59;;;;;;;11.47;10.20;;;3.30;83.10;;;;;;5038047;28;20453;-84
2021/01/05 11:09:29;;;;;;;11.67;10.47;;;3.60;84.80;;;;;;5042574;28;20457;-84
2021/01/05 11:11:57;;;;;;;12.87;10.80;;;3.50;84.50;;;;;;5038837;28;20554;-79
2021/01/05 11:14:24;;;;;;;15.50;11.87;;;3.30;84.50;;;;;;5037332;28;20440;-83
2021/01/05 11:16:51;;;;;;;13.90;10.57;;;3.30;85.10;;;;;;5037012;28;20444;-76
2021/01/05 11:19:18;;;;;;;14.20;11.67;;;3.40;85.80;;;;;;5032395;28;20475;-78
2021/01/05 11:21:50;;;;;;;14.10;12.53;;;3.60;86.00;;;;;;5036992;28;20445;-81
2021/01/05 11:24:16;;;;;;;16.33;12.80;;;3.50;85.10;;;;;;5025861;28;20478;-73
2021/01/05 11:26:43;;;;;;;13.37;11.97;;;3.50;85.40;;;;;;5031783;28;20468;-75
2021/01/05 11:29:11;;;;;;;17.73;12.23;;;3.60;85.80;;;;;;5033231;28;20526;-76
2021/01/05 11:31:38;;;;;;;15.70;11.57;;;3.60;84.80;;;;;;5035817;28;20461;-73
2021/01/05 11:34:04;;;;;;;16.83;13.00;;;3.50;84.60;;;;;;5033454;28;20481;-76
2021/01/05 11:36:32;;;;;;;18.37;11.90;;;3.60;85.40;;;;;;5033267;28;20826;-77
2021/01/05 11:38:59;;;;;;;16.20;12.80;;;3.70;84.80;;;;;;5032142;28;20465;-77
2021/01/05 11:41:27;;;;;;;16.60;12.00;;;3.60;83.80;;;;;;5037830;28;20510;-80
2021/01/05 11:43:54;;;;;;;14.53;13.00;;;3.60;82.60;;;;;;5037057;28;20464;-79
2021/01/05 11:46:22;;;;;;;19.30;13.10;;;3.60;82.20;;;;;;5036217;28;20461;-79
2021/01/05 11:48:48;;;;;;;17.53;13.60;;;3.80;81.90;;;;;;5027045;28;20485;-79
2021/01/05 11:51:21;;;;;;;16.30;13.23;;;4.00;81.90;;;;;;5030147;28;20570;-77
2021/01/05 11:53:47;;;;;;;19.03;13.43;;;4.10;80.80;;;;;;5037645;28;20453;-78
2021/01/05 11:56:21;;;;;;;18.53;13.70;;;3.90;80.70;;;;;;5032922;28;20449;-77
2021/01/05 11:58:47;;;;;;;22.00;12.93;;;4.00;79.90;;;;;;5031289;28;20863;-78
2021/01/05 12:01:14;;;;;;;15.57;12.60;;;3.90;79.80;;;;;;5036461;28;20472;-77
2021/01/05 12:03:42;;;;;;;18.63;13.67;;;3.60;79.70;;;;;;5033935;28;20951;-80
2021/01/05 12:06:12;;;;;;;17.57;13.07;;;3.60;80.50;;;;;;5033376;28;20463;-79
2021/01/05 12:08:39;;;;;;;17.50;13.17;;;3.60;80.90;;;;;;5034256;28;20963;-79
2021/01/05 12:11:06;;;;;;;19.10;13.30;;;3.80;80.60;;;;;;5033562;28;20460;-78
2021/01/05 12:13:32;;;;;;;17.23;14.17;;;3.80;81.00;;;;;;5036870;28;20479;-77
2021/01/05 12:15:59;;;;;;;22.47;14.80;;;3.90;80.90;;;;;;5032252;28;20492;-77
2021/01/05 12:18:26;;;;;;;18.63;13.70;;;4.20;80.60;;;;;;5031270;28;20461;-77
2021/01/05 12:20:53;;;;;;;17.63;14.37;;;4.40;80.70;;;;;;5016223;28;20895;-78
2021/01/05 12:23:20;;;;;;;18.60;14.10;;;4.30;80.50;;;;;;5036677;28;20812;-80
2021/01/05 12:25:47;;;;;;;22.57;14.10;;;4.40;79.60;;;;;;5036052;28;20479;-79
2021/01/05 12:28:18;;;;;;;18.43;13.90;;;4.40;79.50;;;;;;5037192;28;20583;-86
2021/01/05 12:30:46;;;;;;;17.00;13.77;;;4.20;79.40;;;;;;5041885;28;20463;-85
2021/01/05 12:33:14;;;;;;;19.90;14.37;;;4.20;79.50;;;;;;5045921;28;20813;-86
2021/01/05 12:35:47;;;;;;;20.47;15.37;;;4.10;80.20;;;;;;5041250;28;20462;-85
2021/01/05 12:38:19;;;;;;;17.10;13.40;;;4.10;80.10;;;;;;5023970;28;20493;-86
2021/01/05 12:40:53;;;;;;;16.73;14.13;;;4.20;80.60;;;;;;5042733;28;20532;-85
2021/01/05 12:43:42;;;;;;;21.23;14.90;;;4.40;80.60;;;;;;5038771;28;20460;-85
2021/01/05 12:46:11;;;;;;;19.13;13.90;;;4.30;80.00;;;;;;5043113;28;20456;-86
2021/01/05 12:48:38;;;;;;;18.17;13.90;;;4.20;80.30;;;;;;5043160;28;20450;-86
2021/01/05 12:51:06;;;;;;;17.70;14.37;;;4.20;80.70;;;;;;5028719;28;20451;-86
2021/01/05 12:53:46;;;;;;;19.70;15.30;;;4.20;80.40;;;;;;5031370;28;20448;-87
2021/01/05 12:56:17;;;;;;;20.53;14.57;;;4.40;79.90;;;;;;5046705;28;20437;-86
2021/01/05 12:58:44;;;;;;;21.70;16.87;;;4.30;79.50;;;;;;5049368;28;20474;-86
2021/01/05 13:01:14;;;;;;;20.67;15.23;;;4.00;79.70;;;;;;5056804;28;20465;-85
2021/01/05 13:03:42;;;;;;;17.53;14.50;;;3.80;79.60;;;;;;5053372;28;20469;-84
2021/01/05 13:06:08;;;;;;;20.13;14.70;;;3.90;80.60;;;;;;5057861;28;20444;-85